x

Bodega Bay - 48nm Nnw Of San Francisco, Ca (46013) Wave Buoy

2:50am - Fri 31st Oct 2014 All times are PDT. -7 hours from GMT.

  • Sig Wave height 3.6ft
  • Peak Period 9s
  • Average Period 7s
  • Wind
    13mph, 18mph gusts
  • Sea Temp 60°f
  • Air Temp 60°f
  • Sea Pressure 1011.3mb
  • Bodega Bay - 48nm Nnw Of San Francisco, Ca
  • Bodega Bay - 48nm Nnw Of San Francisco, Ca

More Historic Weather Station data

Upgrade to MSW Pro to gain access to the past 30 days of data for over 8000 Wavebouys and Weather Stations around the globe.

Join Pro

Comparision Forecast

View Surf forecast
   
Fri 10/31 2:50am 3.5ft 9s 7s 13 18 mph 1011.3mb 60f 60f
1:50am 3.5ft 9s 7s 9 11 mph 1011.9mb 60f 60f
12:50am 3.5ft 10s 7s 7 9 mph 1012.1mb 60f 60f
Thu 10/30 11:50pm 3.5ft 11s 8s 9 11 mph 1012.2mb 60f 60f
10:50pm 3.5ft 11s 8s 7 9 mph 1012.7mb 60f 60f
9:50pm 4ft 10s 8s 7 9 mph 1012.4mb 60f 60f
8:50pm 4ft 10s 7s 7 9 mph 1012.1mb 60f 61f
7:50pm 4.5ft 8s 7s 7
mph
1012.3mb 60f 60f
6:50pm 4.5ft 8s 7s 2
mph
1011.9mb 60f 61f
5:50pm 4.5ft 11s 8s 2 4 mph 1012.1mb 60f 61f
4:50pm 5.5ft 11s 8s 7
mph
1012mb 60f 62f
3:50pm 5.5ft 11s 8s 9 11 mph 1012mb 61f 61f
2:50pm 5.5ft 10s 8s 9 11 mph 1012.5mb 61f 61f
1:50pm 7ft 10s 9s 4
mph
1012.8mb 61f 61f
12:50pm 6.5ft 10s 9s 7 9 mph 1013.6mb 60f 62f
11:50am 7ft 11s 9s 7 9 mph 1013.8mb 60f 61f
10:50am 6ft 11s  -  9 11 mph 1013.7mb 60f 59f
9:50am 5.5ft 11s 7s 9 11 mph 1013.7mb 60f 59f
8:50am 7.5ft 11s 8s 9 13 mph 1013.9mb 60f 59f
7:50am 7ft 11s 8s 13 16 mph 1013.3mb 60f 59f
6:50am 7ft 11s 8s 11 16 mph 1013.6mb 60f 59f
5:50am 7ft 11s 8s 16 18 mph 1013.2mb 60f 59f
4:50am 7ft 11s 9s 13 16 mph 1013.5mb 60f 60f
3:50am 6.5ft 11s 8s 11
mph
1013.7mb 60f 59f
2:50am 7ft 12s 8s 4
mph
1014mb 60f 60f
1:50am 7ft 12s 8s 2 4 mph 1014.4mb 60f 60f
12:50am 6.5ft 12s 8s 4
mph
1014.8mb 60f 60f
Wed 10/29 11:50pm 6.5ft 12s 8s 7
mph
1015.1mb 60f 61f
10:50pm 7ft 13s 8s 7 9 mph 1015.6mb 60f 61f
9:50pm 7ft 11s 8s 11 13 mph 1015.5mb 61f 61f
8:50pm 7.5ft 12s 9s 11 16 mph 1015.7mb 61f 62f
7:50pm 7.5ft 12s 9s 11 13 mph 1015.8mb 61f 62f
6:50pm 7.5ft 12s 9s 13 16 mph 1015.8mb 61f 62f
5:50pm 8ft 12s 9s 16 18 mph 1015.8mb 61f 62f
4:50pm 9ft 12s 9s 13 16 mph 1016.3mb 62f 62f
3:50pm 9ft 11s 9s 7 9 mph 1016.5mb 62f 62f
2:50pm 9ft 12s 9s 7 11 mph 1017.1mb 62f 62f
1:50pm 8ft 12s 9s 7 9 mph 1017.6mb 62f 62f
12:50pm 8.5ft 11s 9s 4 7 mph 1018.5mb 62f 62f
11:50am 7ft 11s  -  2
mph
1019.1mb 61f 62f
10:50am 7ft 11s 8s 2 4 mph 1019.5mb 60f 61f
9:50am 7ft 11s 8s  -  4 mph 1019.7mb 60f 60f
8:50am 7.5ft 12s 8s 2 4 mph 1019.4mb 60f 60f
7:50am 6.5ft 11s 7s 7 9 mph 1019.5mb 60f 60f
6:50am 7ft 11s 8s 7 9 mph 1019.3mb 60f 60f
5:50am 9ft 11s 9s 9 11 mph 1018.9mb 60f 60f
4:50am 7ft 13s 8s 7 9 mph 1018.7mb 60f 61f
3:50am 8ft 13s 8s 7
mph
1018.7mb 60f 61f
2:50am 8ft 11s 8s 16 18 mph 1018.8mb 60f 62f
1:50am 9ft 10s 8s 16 18 mph 1019.2mb 60f 62f
12:50am 8.5ft 10s 8s 16 20 mph 1019.4mb 60f 62f
Tue 10/28 11:50pm 8.5ft 11s 8s 16 20 mph 1019.9mb 60f 62f
10:50pm 7ft 11s 7s 18 22 mph 1019.8mb 60f 62f
9:50pm 8ft 11s 7s 20 25 mph 1019.5mb 61f 62f
8:50pm 6ft 12s 7s 18 22 mph 1019.2mb 61f 62f
7:50pm 5.5ft 11s 6s 18 22 mph 1019.2mb 61f 62f
6:50pm 5ft 12s 6s 20 22 mph 1019.1mb 61f 62f
5:50pm 4.5ft 10s 5s 18 22 mph 1018.6mb 61f 62f
4:50pm 4.5ft 15s 6s 18 20 mph 1018.7mb 61f 62f
3:50pm 4ft 15s 5s 16 18 mph 1018.9mb 61f 62f
2:50pm 4ft 15s 5s 18 22 mph 1018.8mb 61f 61f
1:50pm 3.5ft 15s 6s 13 16 mph 1019.3mb 61f 61f
12:50pm 3.5ft 8s 5s 13 16 mph 1019.9mb 61f 61f
11:50am 3.5ft 8s 6s 11 13 mph 1020.4mb 60f 60f
10:50am 3.5ft 10s 6s 9 11 mph 1020.3mb 60f 60f
9:50am 4ft 8s 6s 4
mph
1020.2mb 60f 59f
8:50am 4ft 9s 6s 4
mph
1019.7mb 60f 58f
7:50am 4.5ft 9s 5s 11 13 mph 1019.1mb 60f 58f
6:50am 5ft 9s 5s 20 25 mph 1018.5mb 60f 60f
5:50am 5.5ft 10s 6s 20 22 mph 1018.1mb 60f 60f
4:50am 5ft 10s 6s 22 25 mph 1017.7mb 60f 60f
3:50am 5ft 10s 6s 20 25 mph 1017.7mb 60f 60f
2:50am 5.5ft 8s 6s 20 25 mph 1018mb 60f 60f
1:50am 5.5ft 10s 5s 20 25 mph 1017.8mb 60f 60f
12:50am 5ft 9s 5s 20 25 mph 1017.7mb 60f 60f
Mon 10/27 11:50pm 6ft 10s 6s 22 27 mph 1017.7mb 60f 60f
10:50pm 5.5ft 10s 5s 22 27 mph 1017.9mb 61f 60f
9:50pm 6ft 11s 5s 25 29 mph 1017.6mb 61f 60f
8:50pm 6.5ft 11s 6s 25 29 mph 1017.2mb 61f 60f
7:50pm 7ft 11s 6s 27 31 mph 1017mb 61f 60f
6:50pm 7ft 11s 6s 27 34 mph 1016.6mb 61f 60f
5:50pm 7ft 11s 6s 25 31 mph 1016.5mb 61f 60f
4:50pm 6.5ft 11s 6s 25 29 mph 1016.5mb 61f 60f
3:50pm 7.5ft 11s 6s 25 29 mph 1016.6mb 61f 60f
2:50pm 7.5ft 10s 6s 22 27 mph 1016.7mb 61f 60f
1:50pm 7ft 10s 6s 25 29 mph 1016.8mb 61f 60f
12:50pm 8ft 10s 6s 22 27 mph 1017.8mb 61f 59f
11:50am 7.5ft 11s 6s 22 25 mph 1018.4mb 61f 59f